Time;durP1;ratioP1;P1;durP2;ratioP2;P2;SDS_P1;SDS_P2;PMS_P1;PMS_P2;Temp;Humidity;BMP_temperature;BMP_pressure;BME280_temperature;BME280_humidity;BME280_pressure;Samples;Min_cycle;Max_cycle;Signal;HPM_P1;HPM_P2
2021/01/27 00:02:12;;;;;;;7.63;5.30;;;3.70;94.20;;;;;;5118314;27;20106;-41
2021/01/27 00:04:37;;;;;;;7.30;5.20;;;3.70;94.20;;;;;;5105325;28;20038;-37
2021/01/27 00:07:06;;;;;;;7.43;5.20;;;3.70;94.20;;;;;;5114667;27;20047;-41
2021/01/27 00:09:31;;;;;;;6.32;4.97;;;3.60;94.20;;;;;;5107542;27;20115;-40
2021/01/27 00:11:57;;;;;;;8.90;5.32;;;3.60;94.20;;;;;;5111738;27;20412;-41
2021/01/27 00:14:23;;;;;;;8.15;4.35;;;3.60;94.20;;;;;;5109677;27;20042;-41
2021/01/27 00:16:49;;;;;;;10.93;5.53;;;3.60;94.20;;;;;;5109998;27;20015;-41
2021/01/27 00:19:14;;;;;;;7.93;5.40;;;3.60;94.20;;;;;;5112499;27;20032;-38
2021/01/27 00:21:40;;;;;;;9.95;6.15;;;3.50;94.10;;;;;;5106195;27;20035;-41
2021/01/27 00:24:06;;;;;;;8.90;4.57;;;3.50;94.10;;;;;;5116023;27;20114;-40
2021/01/27 00:26:32;;;;;;;7.82;5.05;;;3.50;94.20;;;;;;5106008;27;20454;-41
2021/01/27 00:28:57;;;;;;;7.40;5.20;;;3.50;94.10;;;;;;5115657;27;20039;-40
2021/01/27 00:31:23;;;;;;;8.25;5.47;;;3.50;94.10;;;;;;5104131;28;20027;-39
2021/01/27 00:33:49;;;;;;;7.97;5.15;;;3.50;94.00;;;;;;5115660;27;20031;-40
2021/01/27 00:36:14;;;;;;;8.30;5.53;;;3.50;94.00;;;;;;5105028;28;20152;-40
2021/01/27 00:38:40;;;;;;;9.40;5.38;;;3.60;93.90;;;;;;5117501;27;20109;-39
2021/01/27 00:41:05;;;;;;;9.52;6.07;;;3.60;93.90;;;;;;5104470;28;20042;-38
2021/01/27 00:43:31;;;;;;;8.82;6.00;;;3.60;93.80;;;;;;5116738;27;20434;-40
2021/01/27 00:45:57;;;;;;;7.97;5.78;;;3.60;93.80;;;;;;5105150;28;20481;-40
2021/01/27 00:48:23;;;;;;;9.18;5.63;;;3.60;93.80;;;;;;5113701;27;20054;-40
2021/01/27 00:50:50;;;;;;;8.75;5.72;;;3.60;93.70;;;;;;5107357;27;20110;-40
2021/01/27 00:53:15;;;;;;;8.00;5.63;;;3.60;93.60;;;;;;5112227;27;20024;-38
2021/01/27 00:55:41;;;;;;;8.20;5.45;;;3.60;93.50;;;;;;5109166;27;20229;-42
2021/01/27 00:58:07;;;;;;;7.85;5.70;;;3.60;93.50;;;;;;5108700;27;20019;-40
2021/01/27 01:00:37;;;;;;;10.02;6.55;;;3.60;93.40;;;;;;5112839;27;20059;-40
2021/01/27 01:03:04;;;;;;;7.25;5.57;;;3.60;93.20;;;;;;5106319;27;20049;-41
2021/01/27 01:05:33;;;;;;;9.02;5.95;;;3.60;93.30;;;;;;5113833;27;20077;-39
2021/01/27 01:07:59;;;;;;;8.65;6.00;;;3.60;93.30;;;;;;5106068;28;20024;-38
2021/01/27 01:10:27;;;;;;;8.38;6.03;;;3.60;93.20;;;;;;5115371;28;20030;-39
2021/01/27 01:12:53;;;;;;;9.00;6.07;;;3.50;92.90;;;;;;5104844;28;20023;-40
2021/01/27 01:15:20;;;;;;;9.27;6.03;;;3.50;93.00;;;;;;5114821;28;20049;-39
2021/01/27 01:17:45;;;;;;;8.65;6.13;;;3.60;93.00;;;;;;5102925;28;20028;-39
2021/01/27 01:20:15;;;;;;;9.23;6.00;;;3.50;92.60;;;;;;5116851;28;20023;-40
2021/01/27 01:22:46;;;;;;;7.10;5.75;;;3.50;92.70;;;;;;5106378;28;20081;-39
2021/01/27 01:25:13;;;;;;;9.63;6.05;;;3.50;92.70;;;;;;5120801;27;20038;-40
2021/01/27 01:27:39;;;;;;;7.63;5.35;;;3.50;92.70;;;;;;5107865;28;20499;-40
2021/01/27 01:30:24;;;;;;;9.40;5.70;;;3.50;92.70;;;;;;5120597;27;20118;-43
2021/01/27 01:32:50;;;;;;;7.22;5.50;;;3.60;92.80;;;;;;5107986;28;20037;-39
2021/01/27 01:35:18;;;;;;;6.22;4.93;;;3.60;92.80;;;;;;5120774;27;20042;-40
2021/01/27 01:37:43;;;;;;;7.60;5.45;;;3.60;92.70;;;;;;5107827;27;20546;-41
2021/01/27 01:40:11;;;;;;;6.57;5.40;;;3.60;92.70;;;;;;5117992;27;20113;-40
2021/01/27 01:42:38;;;;;;;7.40;5.00;;;3.60;92.60;;;;;;5110364;27;20058;-38
2021/01/27 01:45:26;;;;;;;7.55;5.10;;;3.60;92.60;;;;;;5115324;27;20532;-41
2021/01/27 01:47:54;;;;;;;7.35;5.03;;;3.60;92.60;;;;;;5109818;27;20040;-41
2021/01/27 01:50:24;;;;;;;7.03;4.90;;;3.70;92.50;;;;;;5116627;27;20062;-39
2021/01/27 01:52:51;;;;;;;5.43;4.57;;;3.60;92.60;;;;;;5110956;27;20175;-40
2021/01/27 01:55:18;;;;;;;6.18;5.00;;;3.70;92.60;;;;;;5114606;27;20031;-38
2021/01/27 01:57:46;;;;;;;7.30;5.13;;;3.70;92.50;;;;;;5113251;27;20028;-39
2021/01/27 02:00:15;;;;;;;5.57;4.15;;;3.70;92.50;;;;;;5111796;27;20042;-40
2021/01/27 02:02:42;;;;;;;5.80;4.38;;;3.70;92.60;;;;;;5115710;27;20126;-38
2021/01/27 02:05:26;;;;;;;5.15;4.32;;;3.70;92.60;;;;;;5109737;27;20044;-37
2021/01/27 02:07:57;;;;;;;6.05;4.32;;;3.70;92.60;;;;;;5115209;27;20213;-38
2021/01/27 02:10:25;;;;;;;6.38;5.10;;;3.70;92.70;;;;;;5111268;27;20063;-39
2021/01/27 02:13:15;;;;;;;7.00;5.00;;;3.70;92.60;;;;;;5116654;27;20030;-37
2021/01/27 02:16:14;;;;;;;7.40;4.82;;;3.60;92.60;;;;;;5111136;27;20069;-40
2021/01/27 02:18:46;;;;;;;7.07;4.90;;;3.70;92.70;;;;;;5111123;27;20027;-40
2021/01/27 02:21:28;;;;;;;6.25;4.53;;;3.60;92.60;;;;;;5114186;27;20046;-39
2021/01/27 02:24:42;;;;;;;5.50;4.70;;;3.60;92.70;;;;;;5111247;27;20039;-39
2021/01/27 02:27:22;;;;;;;5.85;4.30;;;3.60;92.80;;;;;;5120007;27;20119;-39
2021/01/27 02:30:31;;;;;;;7.15;4.68;;;3.60;92.80;;;;;;5107105;28;20047;-40
2021/01/27 02:33:30;;;;;;;6.60;4.65;;;3.60;92.80;;;;;;5063841;27;20470;-38
2021/01/27 02:36:07;;;;;;;6.65;4.50;;;3.60;92.90;;;;;;5125739;27;20070;-41
2021/01/27 02:38:40;;;;;;;5.95;4.70;;;3.60;93.00;;;;;;5116540;27;20026;-40
2021/01/27 02:41:12;;;;;;;7.88;4.05;;;3.60;93.00;;;;;;5125850;27;20458;-39
2021/01/27 02:43:41;;;;;;;5.43;4.15;;;3.60;93.00;;;;;;5115412;27;20051;-40
2021/01/27 02:46:14;;;;;;;5.45;4.65;;;3.60;93.10;;;;;;5126167;27;20098;-37
2021/01/27 02:48:44;;;;;;;;;;;3.60;93.10;;;;;;5115541;27;20093;-41
2021/01/27 02:51:17;;;;;;;5.25;4.60;;;3.60;93.10;;;;;;5126122;27;19903;-39
2021/01/27 02:54:09;;;;;;;4.80;3.70;;;3.60;93.10;;;;;;5115109;27;20167;-41
2021/01/27 02:56:41;;;;;;;4.30;3.88;;;3.60;93.10;;;;;;5125161;27;20146;-37
2021/01/27 02:59:13;;;;;;;4.85;3.50;;;3.60;93.10;;;;;;5116101;27;20076;-38
2021/01/27 03:01:45;;;;;;;5.57;4.00;;;3.60;93.10;;;;;;5124849;27;20019;-40
2021/01/27 03:04:22;;;;;;;4.00;3.47;;;3.60;93.20;;;;;;5115433;27;20031;-40
2021/01/27 03:06:50;;;;;;;4.82;3.60;;;3.70;93.20;;;;;;5124924;27;20320;-38
2021/01/27 03:09:27;;;;;;;3.92;3.53;;;3.70;93.20;;;;;;5114963;27;20433;-40
2021/01/27 03:11:54;;;;;;;5.57;3.55;;;3.70;93.10;;;;;;5125108;27;20025;-40
2021/01/27 03:14:19;;;;;;;3.50;3.10;;;3.70;93.10;;;;;;5115768;27;20034;-40
2021/01/27 03:16:55;;;;;;;4.10;3.20;;;3.70;93.10;;;;;;5125980;27;20052;-40
2021/01/27 03:19:31;;;;;;;3.92;3.20;;;3.70;93.10;;;;;;5115233;27;20046;-41
2021/01/27 03:22:04;;;;;;;4.72;3.42;;;3.70;93.10;;;;;;5126930;27;20038;-41
2021/01/27 03:24:46;;;;;;;6.82;3.58;;;3.70;93.10;;;;;;5113536;27;20419;-40
2021/01/27 03:27:21;;;;;;;4.27;3.20;;;3.70;93.10;;;;;;5126503;27;20027;-40
2021/01/27 03:29:52;;;;;;;4.05;2.85;;;3.70;93.10;;;;;;5116994;27;20023;-40
2021/01/27 03:32:52;;;;;;;3.90;2.90;;;3.70;93.10;;;;;;5106184;28;20038;-40
2021/01/27 03:35:45;;;;;;;3.55;2.95;;;3.70;93.20;;;;;;5081354;27;20036;-40
2021/01/27 03:38:14;;;;;;;;;;;3.80;93.20;;;;;;5124834;27;20027;-40
2021/01/27 03:40:43;;;;;;;3.88;2.85;;;3.70;93.20;;;;;;5115442;27;19907;-40
2021/01/27 03:43:23;;;;;;;4.25;2.58;;;3.70;93.40;;;;;;5124975;27;20015;-40
2021/01/27 03:45:54;;;;;;;3.40;2.90;;;3.70;93.10;;;;;;5114176;27;20023;-40
2021/01/27 03:48:40;;;;;;;4.70;3.05;;;3.70;93.10;;;;;;5124911;27;20080;-40
2021/01/27 03:51:07;;;;;;;3.85;2.85;;;3.60;93.10;;;;;;5116459;27;20023;-38
2021/01/27 03:53:33;;;;;;;3.92;2.60;;;3.60;93.20;;;;;;5124384;27;20126;-40
2021/01/27 03:56:20;;;;;;;3.88;2.58;;;3.60;93.30;;;;;;5113905;27;20034;-40
2021/01/27 03:58:47;;;;;;;3.72;2.75;;;3.60;93.30;;;;;;5123643;27;20074;-41
2021/01/27 04:01:16;;;;;;;2.70;2.25;;;3.60;93.40;;;;;;5114623;27;20015;-40
2021/01/27 04:03:42;;;;;;;3.00;2.30;;;3.60;93.40;;;;;;5123937;27;20027;-39
2021/01/27 04:06:09;;;;;;;2.95;2.63;;;3.60;93.50;;;;;;5114097;27;20039;-41
2021/01/27 04:08:35;;;;;;;4.15;2.72;;;3.60;93.50;;;;;;5125361;27;20027;-40
2021/01/27 04:11:01;;;;;;;3.03;2.45;;;3.50;93.50;;;;;;5113040;27;20126;-40
2021/01/27 04:13:29;;;;;;;4.03;2.67;;;3.50;93.60;;;;;;5125644;27;20038;-40
2021/01/27 04:15:55;;;;;;;2.72;2.45;;;3.50;93.60;;;;;;5112338;27;20028;-41
2021/01/27 04:18:20;;;;;;;3.53;2.60;;;3.50;93.60;;;;;;5125783;27;20063;-40
2021/01/27 04:20:46;;;;;;;3.25;2.80;;;3.50;93.70;;;;;;5113119;27;20024;-40
2021/01/27 04:23:12;;;;;;;2.92;2.60;;;3.50;93.70;;;;;;5124765;27;20066;-40
2021/01/27 04:25:38;;;;;;;2.92;2.58;;;3.50;93.70;;;;;;5116174;27;20861;-40
2021/01/27 04:28:04;;;;;;;3.00;2.67;;;3.60;93.70;;;;;;5121622;27;20031;-41
2021/01/27 04:30:32;;;;;;;3.13;2.83;;;3.60;93.70;;;;;;5118546;27;20028;-40
2021/01/27 04:32:59;;;;;;;3.63;2.70;;;3.60;93.70;;;;;;5119014;27;20024;-41
2021/01/27 04:35:25;;;;;;;3.67;3.08;;;3.60;93.70;;;;;;5120851;27;20036;-40
2021/01/27 04:37:51;;;;;;;4.15;3.10;;;3.60;93.70;;;;;;5116871;27;20027;-37
2021/01/27 04:40:27;;;;;;;3.55;3.22;;;3.60;93.70;;;;;;5123289;27;20065;-38
2021/01/27 04:42:53;;;;;;;2.90;2.45;;;3.60;93.80;;;;;;5115690;27;20031;-40
2021/01/27 04:45:20;;;;;;;3.65;3.13;;;3.60;93.80;;;;;;5123827;27;20160;-39
2021/01/27 04:47:57;;;;;;;4.53;2.83;;;3.60;93.80;;;;;;5112569;27;20047;-38
2021/01/27 04:50:30;;;;;;;3.65;2.80;;;3.60;93.80;;;;;;5123672;27;20083;-41
2021/01/27 04:53:28;;;;;;;4.45;3.13;;;3.60;93.80;;;;;;5113663;27;20262;-40
2021/01/27 04:56:07;;;;;;;4.22;3.22;;;3.60;93.80;;;;;;5121725;27;20043;-40
2021/01/27 04:58:45;;;;;;;3.17;2.60;;;3.60;93.80;;;;;;5097501;27;20062;-39
2021/01/27 05:01:51;;;;;;;3.13;2.60;;;3.60;93.80;;;;;;5120989;27;20037;-43
2021/01/27 05:04:48;;;;;;;3.30;2.80;;;3.60;93.90;;;;;;5017729;28;20041;-41
2021/01/27 05:07:19;;;;;;;3.80;2.70;;;3.50;93.90;;;;;;5113592;27;20051;-38
2021/01/27 05:09:55;;;;;;;3.13;2.50;;;3.50;94.00;;;;;;5123471;27;20782;-39
2021/01/27 05:12:27;;;;;;;3.95;3.17;;;3.50;94.00;;;;;;5114523;27;20046;-38
2021/01/27 05:14:53;;;;;;;4.50;2.85;;;3.50;94.00;;;;;;5123279;28;20039;-40
2021/01/27 05:17:20;;;;;;;3.45;2.70;;;3.50;94.00;;;;;;5115758;28;20352;-40
2021/01/27 05:19:48;;;;;;;3.65;2.78;;;3.50;94.00;;;;;;5120790;28;20027;-41
2021/01/27 05:22:15;;;;;;;3.15;2.72;;;3.50;94.00;;;;;;5117842;28;20088;-39
2021/01/27 05:24:42;;;;;;;3.17;2.72;;;3.50;94.10;;;;;;5118405;28;20450;-41
2021/01/27 05:27:29;;;;;;;3.92;3.35;;;3.60;94.10;;;;;;5120748;28;20053;-39
2021/01/27 05:30:02;;;;;;;4.65;2.90;;;3.60;94.20;;;;;;5118648;28;20027;-38
2021/01/27 05:32:28;;;;;;;3.28;2.85;;;3.50;94.20;;;;;;5118508;28;20023;-40
2021/01/27 05:34:56;;;;;;;3.63;2.67;;;3.50;94.20;;;;;;5117488;28;20092;-39
2021/01/27 05:37:27;;;;;;;3.42;2.80;;;3.50;94.20;;;;;;5121183;28;20049;-39
2021/01/27 05:40:07;;;;;;;4.10;2.90;;;3.50;94.30;;;;;;5115679;28;20083;-40
2021/01/27 05:42:35;;;;;;;4.47;3.22;;;3.50;94.30;;;;;;5120392;28;20454;-40
2021/01/27 05:45:22;;;;;;;4.57;3.40;;;3.50;94.40;;;;;;5115444;28;20026;-41
2021/01/27 05:47:48;;;;;;;4.57;3.03;;;3.40;94.40;;;;;;5119649;28;20130;-40
2021/01/27 05:50:32;;;;;;;4.03;3.63;;;3.40;94.50;;;;;;5115782;28;20107;-39
2021/01/27 05:53:18;;;;;;;4.10;2.83;;;3.40;94.60;;;;;;5120356;28;20109;-39
2021/01/27 05:56:18;;;;;;;4.15;3.28;;;3.30;94.60;;;;;;5118113;28;20047;-39
2021/01/27 05:58:49;;;;;;;4.70;3.28;;;3.30;94.70;;;;;;5114117;28;20024;-39
2021/01/27 06:01:20;;;;;;;4.07;3.38;;;3.30;94.70;;;;;;5121457;28;20035;-39
2021/01/27 06:04:21;;;;;;;4.25;3.85;;;3.30;94.80;;;;;;5115694;28;20102;-39
2021/01/27 06:06:50;;;;;;;3.80;3.40;;;3.30;94.80;;;;;;5103761;28;20067;-40
2021/01/27 06:09:40;;;;;;;4.18;3.50;;;3.30;94.90;;;;;;5117381;27;20027;-38
2021/01/27 06:12:18;;;;;;;3.78;3.22;;;3.30;95.00;;;;;;5105005;28;20080;-40
2021/01/27 06:14:45;;;;;;;3.83;3.53;;;3.30;95.00;;;;;;5119802;27;20050;-39
2021/01/27 06:17:24;;;;;;;3.88;3.35;;;3.20;95.00;;;;;;5108194;28;20507;-41
2021/01/27 06:20:14;;;;;;;3.97;3.58;;;3.20;95.10;;;;;;5119470;27;20091;-40
2021/01/27 06:23:03;;;;;;;3.83;3.40;;;3.20;95.10;;;;;;5107572;28;20026;-41
2021/01/27 06:26:06;;;;;;;3.47;3.17;;;3.20;95.20;;;;;;5119614;27;20049;-40
2021/01/27 06:28:59;;;;;;;3.95;3.53;;;3.20;95.20;;;;;;5109033;27;20054;-39
2021/01/27 06:31:44;;;;;;;3.95;3.38;;;3.10;95.30;;;;;;5118133;27;20138;-41
2021/01/27 06:34:25;;;;;;;4.82;3.83;;;3.10;95.30;;;;;;5125254;27;20130;-38
2021/01/27 06:36:58;;;;;;;4.07;3.67;;;3.10;95.50;;;;;;5119535;27;20031;-41
2021/01/27 06:39:36;;;;;;;4.00;3.22;;;3.10;95.50;;;;;;5125385;27;20076;-40
2021/01/27 06:42:34;;;;;;;4.57;3.20;;;3.10;95.60;;;;;;5119740;27;20110;-41
2021/01/27 06:45:33;;;;;;;3.38;3.08;;;3.10;95.60;;;;;;5120634;27;20054;-41
2021/01/27 06:48:04;;;;;;;4.55;3.25;;;3.10;95.60;;;;;;5125968;27;20058;-39
2021/01/27 06:50:42;;;;;;;4.47;3.40;;;3.20;95.60;;;;;;5117956;27;20037;-35
2021/01/27 06:53:36;;;;;;;3.90;3.50;;;3.10;95.60;;;;;;5126185;27;20056;-40
2021/01/27 06:56:20;;;;;;;3.50;3.20;;;3.10;95.70;;;;;;5114066;27;20052;-40
2021/01/27 06:59:00;;;;;;;3.35;3.10;;;3.10;95.70;;;;;;5105186;28;20059;-40
2021/01/27 07:01:49;;;;;;;4.35;3.80;;;3.00;95.70;;;;;;5092647;27;20035;-40
2021/01/27 07:04:46;;;;;;;3.83;3.50;;;3.00;95.80;;;;;;5124951;27;20058;-40
2021/01/27 07:07:26;;;;;;;4.53;3.60;;;3.00;95.90;;;;;;5117713;27;20088;-40
2021/01/27 07:10:13;;;;;;;5.78;4.70;;;3.00;95.90;;;;;;5106803;27;20063;-39
2021/01/27 07:12:50;;;;;;;4.95;4.45;;;3.00;95.90;;;;;;5117391;27;20095;-40
2021/01/27 07:15:34;;;;;;;4.13;3.72;;;3.00;95.90;;;;;;5106622;27;20295;-40
2021/01/27 07:18:11;;;;;;;5.38;3.80;;;3.00;96.00;;;;;;5116265;27;20030;-37
2021/01/27 07:20:58;;;;;;;4.18;3.78;;;3.00;96.00;;;;;;5123410;27;20671;-38
2021/01/27 07:23:28;;;;;;;4.15;3.75;;;3.00;96.00;;;;;;5118874;27;20019;-40
2021/01/27 07:26:26;;;;;;;4.63;3.78;;;3.00;96.00;;;;;;5124127;27;20032;-40
2021/01/27 07:29:30;;;;;;;4.30;3.90;;;3.10;96.00;;;;;;5106201;27;20043;-39
2021/01/27 07:32:22;;;;;;;5.20;4.43;;;3.10;96.00;;;;;;5124145;27;20626;-40
2021/01/27 07:34:57;;;;;;;4.07;3.72;;;3.10;96.10;;;;;;5124301;27;20039;-41
2021/01/27 07:37:31;;;;;;;4.75;4.25;;;3.10;96.00;;;;;;5124275;27;20019;-39
2021/01/27 07:40:03;;;;;;;4.38;3.97;;;3.10;96.10;;;;;;5106506;28;20125;-40
2021/01/27 07:42:51;;;;;;;4.43;3.95;;;3.20;96.10;;;;;;5117584;27;20461;-37
2021/01/27 07:45:20;;;;;;;5.15;4.20;;;3.20;96.10;;;;;;5106569;28;20067;-41
2021/01/27 07:48:09;;;;;;;5.18;4.70;;;3.20;96.10;;;;;;5118146;27;20023;-39
2021/01/27 07:50:35;;;;;;;5.40;4.35;;;3.20;96.10;;;;;;5105500;28;20505;-39
2021/01/27 07:53:09;;;;;;;4.70;4.30;;;3.20;96.10;;;;;;5118790;27;20019;-38
2021/01/27 07:55:46;;;;;;;5.10;4.60;;;3.20;96.20;;;;;;5106117;28;20047;-39
2021/01/27 07:58:19;;;;;;;4.55;4.03;;;3.20;96.20;;;;;;5118651;27;20034;-39
2021/01/27 08:00:54;;;;;;;4.57;4.18;;;3.20;96.20;;;;;;5105248;28;20027;-41
2021/01/27 08:03:40;;;;;;;5.10;4.60;;;3.20;96.20;;;;;;5110538;27;20157;-39
2021/01/27 08:06:10;;;;;;;5.13;4.68;;;3.20;96.20;;;;;;5125070;27;20047;-41
2021/01/27 08:08:49;;;;;;;6.22;5.07;;;3.20;96.20;;;;;;5125563;27;20035;-40
2021/01/27 08:11:37;;;;;;;4.88;4.47;;;3.20;96.30;;;;;;5113359;27;20031;-39
2021/01/27 08:14:04;;;;;;;5.07;4.57;;;3.30;96.40;;;;;;5113423;27;20023;-40
2021/01/27 08:16:43;;;;;;;4.78;4.38;;;3.30;96.40;;;;;;5126531;27;20720;-42
2021/01/27 08:19:11;;;;;;;5.28;4.78;;;3.30;96.40;;;;;;5113010;27;20412;-42
2021/01/27 08:21:46;;;;;;;4.75;4.35;;;3.30;96.40;;;;;;5126592;27;20019;-38
2021/01/27 08:24:49;;;;;;;4.93;4.43;;;3.30;96.40;;;;;;5113255;27;20028;-40
2021/01/27 08:27:14;;;;;;;4.60;4.20;;;3.40;96.40;;;;;;5021413;28;20037;-39
2021/01/27 08:30:02;;;;;;;5.35;4.90;;;3.40;96.40;;;;;;5092301;27;20492;-39
2021/01/27 08:32:43;;;;;;;5.47;5.03;;;3.40;96.50;;;;;;5123914;27;20035;-40
2021/01/27 08:35:37;;;;;;;5.90;5.30;;;3.40;96.50;;;;;;5117121;27;20039;-39
2021/01/27 08:38:27;;;;;;;5.07;4.68;;;3.40;96.60;;;;;;5062829;27;20023;-40
2021/01/27 08:40:53;;;;;;;5.05;4.53;;;3.40;96.60;;;;;;5116396;27;20033;-38
2021/01/27 08:43:24;;;;;;;6.13;5.53;;;3.40;96.60;;;;;;5124555;27;20019;-40
2021/01/27 08:45:50;;;;;;;5.85;5.35;;;3.50;96.60;;;;;;5114230;27;20620;-40
2021/01/27 08:48:46;;;;;;;5.05;4.60;;;3.50;96.70;;;;;;5123817;27;20060;-40
2021/01/27 08:51:35;;;;;;;5.15;4.65;;;3.40;96.80;;;;;;5116431;27;20034;-41
2021/01/27 08:54:19;;;;;;;5.00;4.50;;;3.50;96.80;;;;;;5120592;27;20030;-41
2021/01/27 08:57:22;;;;;;;4.70;4.18;;;3.50;96.80;;;;;;5119301;27;20043;-39
2021/01/27 08:59:58;;;;;;;4.93;4.40;;;3.50;96.80;;;;;;5115882;27;20024;-41
2021/01/27 09:03:02;;;;;;;5.60;5.10;;;3.60;96.90;;;;;;5122961;27;20088;-42
2021/01/27 09:05:27;;;;;;;4.97;4.57;;;3.60;96.90;;;;;;5111890;27;20035;-40
2021/01/27 09:07:59;;;;;;;4.47;4.07;;;3.60;96.90;;;;;;5125386;27;20035;-41
2021/01/27 09:10:29;;;;;;;5.18;4.70;;;3.60;96.90;;;;;;5114303;27;20031;-39
2021/01/27 09:12:56;;;;;;;5.20;4.80;;;3.60;97.00;;;;;;5124700;27;20658;-39
2021/01/27 09:15:31;;;;;;;4.80;4.40;;;3.70;97.00;;;;;;5115118;28;20151;-41
2021/01/27 09:17:58;;;;;;;4.43;4.10;;;3.70;97.00;;;;;;5123761;28;20030;-39
2021/01/27 09:20:30;;;;;;;5.03;4.60;;;3.70;97.00;;;;;;5115930;28;20031;-42
2021/01/27 09:23:01;;;;;;;4.95;4.55;;;3.70;97.10;;;;;;5120498;28;20035;-42
2021/01/27 09:25:28;;;;;;;4.88;4.47;;;3.70;97.10;;;;;;5122309;28;20054;-42
2021/01/27 09:28:08;;;;;;;5.65;5.15;;;3.70;97.20;;;;;;5125075;28;20079;-39
2021/01/27 09:30:34;;;;;;;4.88;4.47;;;3.70;97.20;;;;;;5123403;28;20035;-39
2021/01/27 09:33:19;;;;;;;5.35;4.95;;;3.70;97.20;;;;;;5124999;28;20596;-40
2021/01/27 09:35:46;;;;;;;5.25;4.85;;;3.80;97.30;;;;;;5122968;28;20446;-38
2021/01/27 09:38:16;;;;;;;4.45;4.15;;;3.80;97.30;;;;;;5125008;28;20027;-40
2021/01/27 09:40:53;;;;;;;5.35;4.82;;;3.80;97.30;;;;;;5123147;28;20019;-42
2021/01/27 09:43:22;;;;;;;5.80;5.30;;;3.80;97.30;;;;;;5126554;27;20027;-40
2021/01/27 09:45:50;;;;;;;6.00;5.40;;;3.80;97.30;;;;;;5124383;27;20054;-40
2021/01/27 09:48:18;;;;;;;5.93;5.43;;;3.90;97.40;;;;;;5117043;27;20029;-41
2021/01/27 09:51:01;;;;;;;6.85;6.25;;;3.90;97.40;;;;;;5110125;27;20102;-42
2021/01/27 09:53:28;;;;;;;;;;;3.90;97.40;;;;;;5116929;27;20462;-43
2021/01/27 09:55:54;;;;;;;7.43;6.72;;;3.90;97.40;;;;;;5111027;27;19911;-37
2021/01/27 09:58:21;;;;;;;7.30;6.60;;;3.90;97.40;;;;;;5118599;27;20023;-40
2021/01/27 10:00:48;;;;;;;7.03;6.43;;;3.90;97.50;;;;;;5111582;27;20053;-42
2021/01/27 10:03:26;;;;;;;7.70;7.00;;;3.90;97.50;;;;;;5129670;27;20034;-39
2021/01/27 10:05:52;;;;;;;8.18;7.43;;;4.00;97.50;;;;;;5126962;27;20147;-39
2021/01/27 10:08:21;;;;;;;8.60;7.80;;;4.00;97.50;;;;;;5117357;27;20478;-40
2021/01/27 10:11:08;;;;;;;8.88;8.07;;;4.10;97.60;;;;;;5127368;27;20116;-39
2021/01/27 10:13:36;;;;;;;8.35;7.55;;;4.10;97.60;;;;;;5119896;27;20015;-39
2021/01/27 10:16:13;;;;;;;9.63;8.63;;;4.10;97.70;;;;;;5109360;27;20039;-40
2021/01/27 10:18:42;;;;;;;9.63;8.63;;;4.10;97.70;;;;;;5119154;27;20025;-41
2021/01/27 10:21:10;;;;;;;9.13;8.23;;;4.20;97.70;;;;;;5109166;27;20020;-40
2021/01/27 10:23:37;;;;;;;8.68;7.78;;;4.20;97.70;;;;;;5119249;27;20027;-40
2021/01/27 10:26:21;;;;;;;8.25;7.45;;;4.20;97.70;;;;;;5107673;28;20027;-41
2021/01/27 10:28:46;;;;;;;9.88;8.88;;;4.30;97.60;;;;;;5124904;27;20080;-41
2021/01/27 10:31:35;;;;;;;8.90;8.02;;;4.30;97.70;;;;;;5128792;27;20457;-41
2021/01/27 10:34:01;;;;;;;8.90;8.02;;;4.30;97.60;;;;;;5116945;27;20026;-41
2021/01/27 10:36:43;;;;;;;8.77;7.95;;;4.30;97.70;;;;;;5128725;27;20031;-41
2021/01/27 10:39:12;;;;;;;9.15;8.35;;;4.40;97.60;;;;;;5119346;27;20027;-39
2021/01/27 10:41:38;;;;;;;10.48;8.32;;;4.40;97.60;;;;;;5107801;28;20028;-41
2021/01/27 10:44:28;;;;;;;10.07;9.07;;;4.40;97.60;;;;;;5120808;27;20042;-40
2021/01/27 10:47:00;;;;;;;8.55;7.70;;;4.50;97.60;;;;;;5107225;28;20028;-37
2021/01/27 10:49:36;;;;;;;8.60;7.70;;;4.50;97.60;;;;;;5119435;27;20020;-40
2021/01/27 10:52:06;;;;;;;8.88;8.07;;;4.50;97.60;;;;;;5107674;27;20366;-41
2021/01/27 10:54:31;;;;;;;9.30;8.40;;;4.50;97.60;;;;;;5114213;27;20194;-41
2021/01/27 10:56:57;;;;;;;9.63;8.73;;;4.60;97.60;;;;;;5127700;27;20030;-41
2021/01/27 10:59:24;;;;;;;10.23;9.23;;;4.60;97.60;;;;;;5115043;27;20033;-41
2021/01/27 11:01:49;;;;;;;11.02;9.95;;;4.60;97.60;;;;;;5127392;27;20057;-41
2021/01/27 11:04:15;;;;;;;10.40;9.27;;;4.60;97.60;;;;;;5116251;27;20054;-41
2021/01/27 11:06:41;;;;;;;10.88;9.70;;;4.60;97.60;;;;;;5126395;27;20065;-38
2021/01/27 11:09:07;;;;;;;10.73;9.63;;;4.60;97.70;;;;;;5127546;27;21668;-39
2021/01/27 11:11:33;;;;;;;11.35;10.23;;;4.70;97.70;;;;;;5124835;27;20018;-42
2021/01/27 11:13:59;;;;;;;10.75;9.65;;;4.70;97.70;;;;;;5120382;27;20015;-41
2021/01/27 11:16:24;;;;;;;10.98;9.80;;;4.70;97.60;;;;;;5121443;27;20473;-41
2021/01/27 11:18:53;;;;;;;12.70;11.05;;;4.80;97.60;;;;;;5122915;27;20068;-41
2021/01/27 11:21:18;;;;;;;12.73;11.43;;;4.80;97.70;;;;;;5117369;27;20030;-41
2021/01/27 11:23:44;;;;;;;12.65;11.23;;;4.80;97.70;;;;;;5121936;27;20038;-41
2021/01/27 11:26:10;;;;;;;14.15;12.65;;;4.80;97.70;;;;;;5124033;27;20019;-41
2021/01/27 11:28:35;;;;;;;13.95;12.23;;;4.90;97.70;;;;;;5125810;27;20645;-40
2021/01/27 11:31:01;;;;;;;15.40;13.45;;;4.90;97.80;;;;;;5122199;27;20065;-41
2021/01/27 11:33:27;;;;;;;14.38;12.88;;;4.90;97.80;;;;;;5126322;27;20019;-41
2021/01/27 11:35:54;;;;;;;14.80;13.10;;;4.90;97.80;;;;;;5118630;27;20039;-40
2021/01/27 11:38:21;;;;;;;13.75;12.23;;;4.90;97.90;;;;;;5127097;27;20188;-41
2021/01/27 11:40:49;;;;;;;13.85;12.43;;;4.90;97.90;;;;;;5121930;27;20423;-38
2021/01/27 11:43:15;;;;;;;15.05;12.50;;;4.90;97.90;;;;;;5125027;27;20023;-40
2021/01/27 11:45:41;;;;;;;14.32;12.82;;;4.90;97.90;;;;;;5124877;27;20027;-40
2021/01/27 11:48:07;;;;;;;13.93;12.20;;;4.90;97.90;;;;;;5106891;28;20043;-40
2021/01/27 11:50:32;;;;;;;16.92;12.90;;;5.00;97.90;;;;;;5115012;27;20064;-41
2021/01/27 11:52:58;;;;;;;13.60;11.82;;;5.00;97.90;;;;;;5119824;27;20015;-39
2021/01/27 11:55:23;;;;;;;13.63;11.70;;;5.00;97.90;;;;;;5129248;27;20087;-41
2021/01/27 11:57:49;;;;;;;15.00;13.38;;;5.10;97.90;;;;;;5125951;27;20024;-42
2021/01/27 12:00:18;;;;;;;14.95;13.35;;;5.10;97.90;;;;;;5122462;27;20023;-39
2021/01/27 12:02:44;;;;;;;14.25;11.93;;;5.10;97.90;;;;;;5113765;27;20027;-39
2021/01/27 12:05:13;;;;;;;15.98;12.85;;;5.10;98.00;;;;;;5110152;27;20134;-40
2021/01/27 12:07:38;;;;;;;15.45;13.13;;;5.20;98.00;;;;;;5115470;27;20102;-41
2021/01/27 12:10:05;;;;;;;15.65;12.77;;;5.30;98.00;;;;;;5124625;27;20035;-41
2021/01/27 12:12:30;;;;;;;16.80;13.73;;;5.30;97.90;;;;;;5115075;27;20038;-41
2021/01/27 12:14:56;;;;;;;15.05;12.52;;;5.30;97.90;;;;;;5124875;27;20031;-40
2021/01/27 12:17:21;;;;;;;17.15;13.50;;;5.40;98.00;;;;;;5114675;27;20031;-39
2021/01/27 12:19:53;;;;;;;15.43;13.27;;;5.40;97.90;;;;;;5125835;27;20057;-40
2021/01/27 12:22:19;;;;;;;16.30;13.55;;;5.40;97.90;;;;;;5112810;27;20019;-40
2021/01/27 12:24:44;;;;;;;16.58;13.82;;;5.50;97.90;;;;;;5125484;27;20823;-40
2021/01/27 12:27:10;;;;;;;16.90;13.88;;;5.50;97.90;;;;;;5113478;27;20035;-41
2021/01/27 12:29:35;;;;;;;16.88;13.98;;;5.50;97.80;;;;;;5126129;27;20063;-42
2021/01/27 12:32:01;;;;;;;17.40;14.73;;;5.60;97.80;;;;;;5115021;27;20038;-38
2021/01/27 12:34:26;;;;;;;15.57;13.13;;;5.60;97.80;;;;;;5123514;27;20114;-40
2021/01/27 12:36:52;;;;;;;17.73;14.25;;;5.60;97.80;;;;;;5117930;27;20077;-41
2021/01/27 12:39:18;;;;;;;18.92;14.38;;;5.70;97.80;;;;;;5120719;27;20056;-40
2021/01/27 12:41:45;;;;;;;19.95;14.93;;;5.70;97.80;;;;;;5120233;27;20007;-41
2021/01/27 12:44:11;;;;;;;19.48;15.13;;;5.70;97.80;;;;;;5118724;27;20176;-40
2021/01/27 12:46:36;;;;;;;18.73;16.00;;;5.70;97.80;;;;;;5122527;27;20110;-40
2021/01/27 12:49:03;;;;;;;19.30;14.98;;;5.80;97.80;;;;;;5115347;27;20050;-39
2021/01/27 12:51:28;;;;;;;16.65;13.98;;;5.70;97.80;;;;;;5124241;27;20152;-41
2021/01/27 12:53:54;;;;;;;20.08;16.13;;;5.80;97.80;;;;;;5113199;27;20504;-41
2021/01/27 12:56:19;;;;;;;19.98;15.48;;;5.80;97.90;;;;;;5123853;27;20050;-40
2021/01/27 12:58:45;;;;;;;20.17;16.05;;;5.80;97.90;;;;;;5113642;27;20019;-41
2021/01/27 13:01:12;;;;;;;21.73;15.23;;;5.80;97.80;;;;;;5125179;27;20031;-40
2021/01/27 13:03:38;;;;;;;18.15;15.15;;;5.80;97.90;;;;;;5111655;27;20408;-38
2021/01/27 13:06:03;;;;;;;19.48;15.90;;;5.90;98.00;;;;;;5125765;27;20125;-40
2021/01/27 13:08:29;;;;;;;20.08;16.40;;;5.90;97.90;;;;;;5112133;27;20520;-39
2021/01/27 13:10:55;;;;;;;22.95;16.67;;;5.90;98.20;;;;;;5125450;27;20594;-40
2021/01/27 13:13:20;;;;;;;23.38;17.65;;;5.90;97.90;;;;;;5123576;28;20043;-38
2021/01/27 13:15:46;;;;;;;20.27;15.50;;;6.00;98.00;;;;;;5124883;27;20039;-36
2021/01/27 13:18:11;;;;;;;22.33;16.75;;;5.90;98.00;;;;;;5120692;27;20181;-41
2021/01/27 13:20:38;;;;;;;20.52;17.35;;;6.00;98.00;;;;;;5109642;28;20104;-41
2021/01/27 13:23:04;;;;;;;23.33;17.25;;;6.00;98.00;;;;;;5109770;28;20030;-41
2021/01/27 13:25:30;;;;;;;23.45;16.38;;;6.00;98.10;;;;;;5113346;28;20031;-41